sensor_id;sensor_type;location;lat;lon;timestamp;P1;durP1;ratioP1;P2;durP2;ratioP2
40164;SDS011;25882;51.120;17.248;2022-08-01T00:00:19;6.10;;;4.50;;
40164;SDS011;25882;51.120;17.248;2022-08-01T00:03:05;5.15;;;4.43;;
40164;SDS011;25882;51.120;17.248;2022-08-01T00:05:38;5.97;;;4.57;;
40164;SDS011;25882;51.120;17.248;2022-08-01T00:08:11;6.28;;;4.57;;
40164;SDS011;25882;51.120;17.248;2022-08-01T00:10:44;5.95;;;4.72;;
40164;SDS011;25882;51.120;17.248;2022-08-01T00:13:14;6.50;;;4.93;;
40164;SDS011;25882;51.120;17.248;2022-08-01T00:15:46;6.63;;;5.13;;
40164;SDS011;25882;51.120;17.248;2022-08-01T00:18:14;8.40;;;5.00;;
40164;SDS011;25882;51.120;17.248;2022-08-01T00:20:47;7.43;;;5.32;;
40164;SDS011;25882;51.120;17.248;2022-08-01T00:23:20;8.20;;;5.35;;
40164;SDS011;25882;51.120;17.248;2022-08-01T00:25:54;8.25;;;6.10;;
40164;SDS011;25882;51.120;17.248;2022-08-01T00:28:25;6.80;;;5.68;;
40164;SDS011;25882;51.120;17.248;2022-08-01T00:30:55;6.97;;;5.75;;
40164;SDS011;25882;51.120;17.248;2022-08-01T00:33:24;8.25;;;5.88;;
40164;SDS011;25882;51.120;17.248;2022-08-01T00:35:55;5.78;;;4.88;;
40164;SDS011;25882;51.120;17.248;2022-08-01T00:38:24;4.93;;;4.18;;
40164;SDS011;25882;51.120;17.248;2022-08-01T00:40:57;7.72;;;4.93;;
40164;SDS011;25882;51.120;17.248;2022-08-01T00:43:28;7.90;;;3.80;;
40164;SDS011;25882;51.120;17.248;2022-08-01T00:46:00;6.78;;;5.03;;
40164;SDS011;25882;51.120;17.248;2022-08-01T00:48:29;6.20;;;5.38;;
40164;SDS011;25882;51.120;17.248;2022-08-01T00:50:58;7.00;;;5.63;;
40164;SDS011;25882;51.120;17.248;2022-08-01T00:53:30;7.68;;;6.15;;
40164;SDS011;25882;51.120;17.248;2022-08-01T00:58:29;6.03;;;5.25;;
40164;SDS011;25882;51.120;17.248;2022-08-01T01:00:59;5.60;;;4.80;;
40164;SDS011;25882;51.120;17.248;2022-08-01T01:03:28;6.32;;;5.32;;
40164;SDS011;25882;51.120;17.248;2022-08-01T01:05:59;10.05;;;6.50;;
40164;SDS011;25882;51.120;17.248;2022-08-01T01:08:36;8.60;;;6.38;;
40164;SDS011;25882;51.120;17.248;2022-08-01T01:11:19;5.97;;;5.38;;
40164;SDS011;25882;51.120;17.248;2022-08-01T01:13:52;10.45;;;5.47;;
40164;SDS011;25882;51.120;17.248;2022-08-01T01:16:26;9.15;;;6.47;;
40164;SDS011;25882;51.120;17.248;2022-08-01T01:19:00;11.75;;;7.82;;
40164;SDS011;25882;51.120;17.248;2022-08-01T01:21:36;11.02;;;7.72;;
40164;SDS011;25882;51.120;17.248;2022-08-01T01:24:19;10.63;;;8.30;;
40164;SDS011;25882;51.120;17.248;2022-08-01T01:26:57;11.48;;;8.13;;
40164;SDS011;25882;51.120;17.248;2022-08-01T01:29:38;13.35;;;7.45;;
40164;SDS011;25882;51.120;17.248;2022-08-01T01:32:12;10.65;;;7.85;;
40164;SDS011;25882;51.120;17.248;2022-08-01T01:34:45;10.90;;;7.85;;
40164;SDS011;25882;51.120;17.248;2022-08-01T01:37:23;9.98;;;7.25;;
40164;SDS011;25882;51.120;17.248;2022-08-01T01:39:52;11.30;;;7.28;;
40164;SDS011;25882;51.120;17.248;2022-08-01T01:42:24;9.25;;;7.05;;
40164;SDS011;25882;51.120;17.248;2022-08-01T01:44:57;11.38;;;7.43;;
40164;SDS011;25882;51.120;17.248;2022-08-01T01:47:26;9.02;;;6.88;;
40164;SDS011;25882;51.120;17.248;2022-08-01T01:49:54;11.27;;;7.40;;
40164;SDS011;25882;51.120;17.248;2022-08-01T01:52:29;9.02;;;8.10;;
40164;SDS011;25882;51.120;17.248;2022-08-01T01:54:58;9.95;;;8.13;;
40164;SDS011;25882;51.120;17.248;2022-08-01T01:57:30;10.02;;;7.97;;
40164;SDS011;25882;51.120;17.248;2022-08-01T02:03:41;10.15;;;8.07;;
40164;SDS011;25882;51.120;17.248;2022-08-01T02:06:08;11.07;;;8.10;;
40164;SDS011;25882;51.120;17.248;2022-08-01T02:08:35;12.32;;;8.38;;
40164;SDS011;25882;51.120;17.248;2022-08-01T02:11:02;9.15;;;7.28;;
40164;SDS011;25882;51.120;17.248;2022-08-01T02:13:44;10.82;;;8.48;;
40164;SDS011;25882;51.120;17.248;2022-08-01T02:16:12;10.75;;;7.57;;
40164;SDS011;25882;51.120;17.248;2022-08-01T02:18:41;9.57;;;7.25;;
40164;SDS011;25882;51.120;17.248;2022-08-01T02:21:08;10.15;;;7.63;;
40164;SDS011;25882;51.120;17.248;2022-08-01T02:23:37;10.05;;;7.90;;
40164;SDS011;25882;51.120;17.248;2022-08-01T02:26:06;10.48;;;8.45;;
40164;SDS011;25882;51.120;17.248;2022-08-01T02:28:36;9.65;;;8.15;;
40164;SDS011;25882;51.120;17.248;2022-08-01T02:31:06;11.30;;;8.98;;
40164;SDS011;25882;51.120;17.248;2022-08-01T02:33:36;11.40;;;8.70;;
40164;SDS011;25882;51.120;17.248;2022-08-01T02:36:06;10.68;;;7.75;;
40164;SDS011;25882;51.120;17.248;2022-08-01T02:38:34;10.40;;;8.52;;
40164;SDS011;25882;51.120;17.248;2022-08-01T02:41:02;9.98;;;7.75;;
40164;SDS011;25882;51.120;17.248;2022-08-01T02:43:31;10.23;;;8.95;;
40164;SDS011;25882;51.120;17.248;2022-08-01T02:46:00;14.43;;;9.10;;
40164;SDS011;25882;51.120;17.248;2022-08-01T02:48:28;9.50;;;7.93;;
40164;SDS011;25882;51.120;17.248;2022-08-01T02:50:57;10.68;;;8.23;;
40164;SDS011;25882;51.120;17.248;2022-08-01T02:53:25;12.75;;;8.60;;
40164;SDS011;25882;51.120;17.248;2022-08-01T02:55:53;9.65;;;8.43;;
40164;SDS011;25882;51.120;17.248;2022-08-01T02:58:20;9.75;;;8.75;;
40164;SDS011;25882;51.120;17.248;2022-08-01T03:00:49;13.32;;;8.52;;
40164;SDS011;25882;51.120;17.248;2022-08-01T03:03:16;15.48;;;10.63;;
40164;SDS011;25882;51.120;17.248;2022-08-01T03:05:43;15.18;;;10.82;;
40164;SDS011;25882;51.120;17.248;2022-08-01T03:08:09;14.55;;;10.18;;
40164;SDS011;25882;51.120;17.248;2022-08-01T03:10:38;13.43;;;9.35;;
40164;SDS011;25882;51.120;17.248;2022-08-01T03:13:06;10.77;;;8.15;;
40164;SDS011;25882;51.120;17.248;2022-08-01T03:15:35;11.90;;;8.70;;
40164;SDS011;25882;51.120;17.248;2022-08-01T03:18:03;9.27;;;8.30;;
40164;SDS011;25882;51.120;17.248;2022-08-01T03:20:31;8.13;;;7.05;;
40164;SDS011;25882;51.120;17.248;2022-08-01T03:22:59;10.32;;;7.88;;
40164;SDS011;25882;51.120;17.248;2022-08-01T03:25:26;10.63;;;9.52;;
40164;SDS011;25882;51.120;17.248;2022-08-01T03:27:56;11.80;;;10.02;;
40164;SDS011;25882;51.120;17.248;2022-08-01T03:30:23;13.13;;;9.40;;
40164;SDS011;25882;51.120;17.248;2022-08-01T03:32:50;12.93;;;9.00;;
40164;SDS011;25882;51.120;17.248;2022-08-01T03:35:18;10.27;;;8.55;;
40164;SDS011;25882;51.120;17.248;2022-08-01T03:37:45;12.85;;;8.93;;
40164;SDS011;25882;51.120;17.248;2022-08-01T03:40:13;15.82;;;8.82;;
40164;SDS011;25882;51.120;17.248;2022-08-01T03:42:43;9.18;;;7.53;;
40164;SDS011;25882;51.120;17.248;2022-08-01T03:45:20;9.48;;;7.93;;
40164;SDS011;25882;51.120;17.248;2022-08-01T03:47:49;9.43;;;8.18;;
40164;SDS011;25882;51.120;17.248;2022-08-01T03:50:19;10.93;;;7.40;;
40164;SDS011;25882;51.120;17.248;2022-08-01T03:52:46;9.68;;;7.45;;
40164;SDS011;25882;51.120;17.248;2022-08-01T03:55:14;9.50;;;6.95;;
40164;SDS011;25882;51.120;17.248;2022-08-01T03:57:42;9.50;;;7.07;;
40164;SDS011;25882;51.120;17.248;2022-08-01T04:00:09;10.20;;;6.38;;
40164;SDS011;25882;51.120;17.248;2022-08-01T04:02:38;9.30;;;6.72;;
40164;SDS011;25882;51.120;17.248;2022-08-01T04:05:05;8.63;;;6.53;;
40164;SDS011;25882;51.120;17.248;2022-08-01T04:07:32;8.73;;;6.07;;
40164;SDS011;25882;51.120;17.248;2022-08-01T04:10:02;7.70;;;6.60;;
40164;SDS011;25882;51.120;17.248;2022-08-01T04:12:29;7.40;;;6.03;;
40164;SDS011;25882;51.120;17.248;2022-08-01T04:14:55;7.05;;;6.15;;
40164;SDS011;25882;51.120;17.248;2022-08-01T04:17:22;9.27;;;5.18;;
40164;SDS011;25882;51.120;17.248;2022-08-01T04:19:49;7.43;;;5.30;;
40164;SDS011;25882;51.120;17.248;2022-08-01T04:22:16;7.10;;;5.20;;
40164;SDS011;25882;51.120;17.248;2022-08-01T04:24:42;5.63;;;4.65;;
40164;SDS011;25882;51.120;17.248;2022-08-01T04:27:15;9.20;;;5.80;;
40164;SDS011;25882;51.120;17.248;2022-08-01T04:29:45;7.72;;;5.68;;
40164;SDS011;25882;51.120;17.248;2022-08-01T04:32:12;8.88;;;4.43;;
40164;SDS011;25882;51.120;17.248;2022-08-01T04:34:40;8.27;;;4.80;;
40164;SDS011;25882;51.120;17.248;2022-08-01T04:37:09;8.77;;;5.55;;
40164;SDS011;25882;51.120;17.248;2022-08-01T04:39:35;7.32;;;5.10;;
40164;SDS011;25882;51.120;17.248;2022-08-01T04:42:03;6.20;;;5.43;;
40164;SDS011;25882;51.120;17.248;2022-08-01T04:44:31;5.75;;;5.25;;
40164;SDS011;25882;51.120;17.248;2022-08-01T04:46:58;11.63;;;5.80;;
40164;SDS011;25882;51.120;17.248;2022-08-01T04:49:24;7.43;;;4.28;;
40164;SDS011;25882;51.120;17.248;2022-08-01T04:51:50;7.38;;;5.03;;
40164;SDS011;25882;51.120;17.248;2022-08-01T04:54:19;6.65;;;5.70;;
40164;SDS011;25882;51.120;17.248;2022-08-01T04:56:46;5.38;;;4.85;;
40164;SDS011;25882;51.120;17.248;2022-08-01T04:59:13;5.50;;;4.90;;
40164;SDS011;25882;51.120;17.248;2022-08-01T05:01:57;7.60;;;5.40;;
40164;SDS011;25882;51.120;17.248;2022-08-01T05:04:24;8.15;;;5.30;;
40164;SDS011;25882;51.120;17.248;2022-08-01T05:06:50;7.00;;;5.18;;
40164;SDS011;25882;51.120;17.248;2022-08-01T05:09:16;7.80;;;5.30;;
40164;SDS011;25882;51.120;17.248;2022-08-01T05:11:44;8.68;;;5.10;;
40164;SDS011;25882;51.120;17.248;2022-08-01T05:14:10;6.93;;;5.47;;
40164;SDS011;25882;51.120;17.248;2022-08-01T05:16:36;6.55;;;5.45;;
40164;SDS011;25882;51.120;17.248;2022-08-01T05:19:02;7.40;;;5.47;;
40164;SDS011;25882;51.120;17.248;2022-08-01T05:21:28;6.22;;;4.90;;
40164;SDS011;25882;51.120;17.248;2022-08-01T05:23:54;7.93;;;5.80;;
40164;SDS011;25882;51.120;17.248;2022-08-01T05:26:21;7.35;;;5.28;;
40164;SDS011;25882;51.120;17.248;2022-08-01T05:28:48;6.53;;;4.90;;
40164;SDS011;25882;51.120;17.248;2022-08-01T05:31:14;6.18;;;4.93;;
40164;SDS011;25882;51.120;17.248;2022-08-01T05:33:41;6.55;;;4.28;;
40164;SDS011;25882;51.120;17.248;2022-08-01T05:36:07;5.20;;;4.68;;
40164;SDS011;25882;51.120;17.248;2022-08-01T05:38:33;6.82;;;5.10;;
40164;SDS011;25882;51.120;17.248;2022-08-01T05:40:59;6.55;;;5.20;;
40164;SDS011;25882;51.120;17.248;2022-08-01T05:43:26;6.20;;;4.90;;
40164;SDS011;25882;51.120;17.248;2022-08-01T05:45:54;5.70;;;4.85;;
40164;SDS011;25882;51.120;17.248;2022-08-01T05:48:20;8.25;;;5.75;;
40164;SDS011;25882;51.120;17.248;2022-08-01T05:50:46;8.13;;;4.90;;
40164;SDS011;25882;51.120;17.248;2022-08-01T05:53:13;8.57;;;4.80;;
40164;SDS011;25882;51.120;17.248;2022-08-01T05:55:39;11.15;;;5.97;;
40164;SDS011;25882;51.120;17.248;2022-08-01T05:58:05;5.97;;;5.13;;
40164;SDS011;25882;51.120;17.248;2022-08-01T06:00:31;6.53;;;5.10;;
40164;SDS011;25882;51.120;17.248;2022-08-01T06:02:59;6.10;;;5.07;;
40164;SDS011;25882;51.120;17.248;2022-08-01T06:05:25;7.13;;;4.78;;
40164;SDS011;25882;51.120;17.248;2022-08-01T06:07:51;8.18;;;4.78;;
40164;SDS011;25882;51.120;17.248;2022-08-01T06:10:18;8.07;;;5.00;;
40164;SDS011;25882;51.120;17.248;2022-08-01T06:12:44;6.18;;;5.00;;
40164;SDS011;25882;51.120;17.248;2022-08-01T06:15:11;6.63;;;4.57;;
40164;SDS011;25882;51.120;17.248;2022-08-01T06:17:39;7.63;;;4.50;;
40164;SDS011;25882;51.120;17.248;2022-08-01T06:20:09;6.03;;;4.82;;
40164;SDS011;25882;51.120;17.248;2022-08-01T06:22:35;8.20;;;4.80;;
40164;SDS011;25882;51.120;17.248;2022-08-01T06:25:02;5.55;;;4.70;;
40164;SDS011;25882;51.120;17.248;2022-08-01T06:27:28;8.45;;;4.90;;
40164;SDS011;25882;51.120;17.248;2022-08-01T06:29:54;5.35;;;4.35;;
40164;SDS011;25882;51.120;17.248;2022-08-01T06:32:22;6.22;;;4.68;;
40164;SDS011;25882;51.120;17.248;2022-08-01T06:34:49;8.82;;;4.93;;
40164;SDS011;25882;51.120;17.248;2022-08-01T06:37:20;5.65;;;5.05;;
40164;SDS011;25882;51.120;17.248;2022-08-01T06:39:48;7.28;;;5.10;;
40164;SDS011;25882;51.120;17.248;2022-08-01T06:42:15;8.13;;;5.13;;
40164;SDS011;25882;51.120;17.248;2022-08-01T06:44:41;6.90;;;4.88;;
40164;SDS011;25882;51.120;17.248;2022-08-01T06:47:07;9.70;;;4.97;;
40164;SDS011;25882;51.120;17.248;2022-08-01T06:49:33;9.00;;;4.90;;
40164;SDS011;25882;51.120;17.248;2022-08-01T06:52:00;5.80;;;5.03;;
40164;SDS011;25882;51.120;17.248;2022-08-01T06:54:28;7.40;;;4.70;;
40164;SDS011;25882;51.120;17.248;2022-08-01T06:56:54;5.32;;;4.50;;
40164;SDS011;25882;51.120;17.248;2022-08-01T06:59:20;5.32;;;4.82;;
40164;SDS011;25882;51.120;17.248;2022-08-01T07:01:46;5.95;;;5.10;;
40164;SDS011;25882;51.120;17.248;2022-08-01T07:04:12;6.63;;;5.03;;
40164;SDS011;25882;51.120;17.248;2022-08-01T07:06:38;6.80;;;4.30;;
40164;SDS011;25882;51.120;17.248;2022-08-01T07:09:05;10.65;;;5.20;;
40164;SDS011;25882;51.120;17.248;2022-08-01T07:11:32;8.27;;;4.72;;
40164;SDS011;25882;51.120;17.248;2022-08-01T07:13:58;6.18;;;4.32;;
40164;SDS011;25882;51.120;17.248;2022-08-01T07:16:25;7.32;;;4.95;;
40164;SDS011;25882;51.120;17.248;2022-08-01T07:18:51;6.50;;;4.70;;
40164;SDS011;25882;51.120;17.248;2022-08-01T07:21:18;5.00;;;4.07;;
40164;SDS011;25882;51.120;17.248;2022-08-01T07:23:44;5.30;;;4.32;;
40164;SDS011;25882;51.120;17.248;2022-08-01T07:26:10;6.13;;;4.63;;
40164;SDS011;25882;51.120;17.248;2022-08-01T07:28:39;5.70;;;4.35;;
40164;SDS011;25882;51.120;17.248;2022-08-01T07:31:05;8.88;;;4.72;;
40164;SDS011;25882;51.120;17.248;2022-08-01T07:33:31;6.75;;;4.75;;
40164;SDS011;25882;51.120;17.248;2022-08-01T07:35:57;6.97;;;4.32;;
40164;SDS011;25882;51.120;17.248;2022-08-01T07:38:25;7.05;;;4.40;;
40164;SDS011;25882;51.120;17.248;2022-08-01T07:40:51;10.30;;;4.68;;
40164;SDS011;25882;51.120;17.248;2022-08-01T07:45:54;8.93;;;5.05;;
40164;SDS011;25882;51.120;17.248;2022-08-01T07:48:27;6.60;;;4.47;;
40164;SDS011;25882;51.120;17.248;2022-08-01T07:50:56;5.30;;;4.15;;
40164;SDS011;25882;51.120;17.248;2022-08-01T07:53:24;8.60;;;4.65;;
40164;SDS011;25882;51.120;17.248;2022-08-01T07:55:55;6.53;;;4.27;;
40164;SDS011;25882;51.120;17.248;2022-08-01T07:58:28;5.78;;;3.65;;
40164;SDS011;25882;51.120;17.248;2022-08-01T08:00:56;4.63;;;3.65;;
40164;SDS011;25882;51.120;17.248;2022-08-01T08:03:26;6.32;;;4.40;;
40164;SDS011;25882;51.120;17.248;2022-08-01T08:06:02;7.22;;;4.00;;
40164;SDS011;25882;51.120;17.248;2022-08-01T08:08:29;4.35;;;3.80;;
40164;SDS011;25882;51.120;17.248;2022-08-01T08:10:59;5.93;;;3.70;;
40164;SDS011;25882;51.120;17.248;2022-08-01T08:13:34;6.70;;;3.65;;
40164;SDS011;25882;51.120;17.248;2022-08-01T08:16:07;7.35;;;3.03;;
40164;SDS011;25882;51.120;17.248;2022-08-01T08:18:40;5.00;;;3.13;;
40164;SDS011;25882;51.120;17.248;2022-08-01T08:21:09;8.07;;;3.22;;
40164;SDS011;25882;51.120;17.248;2022-08-01T08:23:47;8.80;;;3.30;;
40164;SDS011;25882;51.120;17.248;2022-08-01T08:26:36;4.47;;;3.10;;
40164;SDS011;25882;51.120;17.248;2022-08-01T08:29:04;5.97;;;3.03;;
40164;SDS011;25882;51.120;17.248;2022-08-01T08:31:33;3.70;;;3.35;;
40164;SDS011;25882;51.120;17.248;2022-08-01T08:34:00;5.53;;;3.35;;
40164;SDS011;25882;51.120;17.248;2022-08-01T08:36:27;5.68;;;3.80;;
40164;SDS011;25882;51.120;17.248;2022-08-01T08:38:55;3.83;;;3.20;;
40164;SDS011;25882;51.120;17.248;2022-08-01T08:41:28;7.05;;;3.65;;
40164;SDS011;25882;51.120;17.248;2022-08-01T08:44:00;5.30;;;3.33;;
40164;SDS011;25882;51.120;17.248;2022-08-01T08:46:26;5.68;;;3.83;;
40164;SDS011;25882;51.120;17.248;2022-08-01T08:48:54;5.43;;;4.13;;
40164;SDS011;25882;51.120;17.248;2022-08-01T08:51:21;4.90;;;3.28;;
40164;SDS011;25882;51.120;17.248;2022-08-01T08:53:50;6.00;;;3.58;;
40164;SDS011;25882;51.120;17.248;2022-08-01T08:56:19;4.65;;;3.60;;
40164;SDS011;25882;51.120;17.248;2022-08-01T08:58:49;5.90;;;3.63;;
40164;SDS011;25882;51.120;17.248;2022-08-01T09:01:39;3.70;;;3.40;;
40164;SDS011;25882;51.120;17.248;2022-08-01T09:04:14;6.78;;;3.50;;
40164;SDS011;25882;51.120;17.248;2022-08-01T09:06:50;4.30;;;3.88;;
40164;SDS011;25882;51.120;17.248;2022-08-01T09:09:17;6.28;;;3.85;;
40164;SDS011;25882;51.120;17.248;2022-08-01T09:11:44;4.32;;;3.75;;
40164;SDS011;25882;51.120;17.248;2022-08-01T09:14:29;4.88;;;4.25;;
40164;SDS011;25882;51.120;17.248;2022-08-01T09:17:12;6.57;;;4.43;;
40164;SDS011;25882;51.120;17.248;2022-08-01T09:19:40;5.95;;;4.10;;
40164;SDS011;25882;51.120;17.248;2022-08-01T09:22:14;5.47;;;3.85;;
40164;SDS011;25882;51.120;17.248;2022-08-01T09:24:59;6.68;;;3.70;;
40164;SDS011;25882;51.120;17.248;2022-08-01T09:27:41;5.22;;;3.42;;
40164;SDS011;25882;51.120;17.248;2022-08-01T09:30:37;6.05;;;3.78;;
40164;SDS011;25882;51.120;17.248;2022-08-01T09:36:15;5.55;;;3.90;;
40164;SDS011;25882;51.120;17.248;2022-08-01T09:39:11;5.22;;;3.60;;
40164;SDS011;25882;51.120;17.248;2022-08-01T09:42:19;4.35;;;2.45;;
40164;SDS011;25882;51.120;17.248;2022-08-01T09:45:10;3.22;;;2.47;;
40164;SDS011;25882;51.120;17.248;2022-08-01T09:48:09;4.00;;;2.60;;
40164;SDS011;25882;51.120;17.248;2022-08-01T09:50:53;4.45;;;3.22;;
40164;SDS011;25882;51.120;17.248;2022-08-01T09:53:45;4.00;;;2.85;;
40164;SDS011;25882;51.120;17.248;2022-08-01T09:56:21;2.90;;;2.60;;
40164;SDS011;25882;51.120;17.248;2022-08-01T09:58:57;4.40;;;2.80;;
40164;SDS011;25882;51.120;17.248;2022-08-01T10:01:42;3.78;;;2.30;;
40164;SDS011;25882;51.120;17.248;2022-08-01T10:04:11;4.88;;;2.63;;
40164;SDS011;25882;51.120;17.248;2022-08-01T10:06:57;4.50;;;2.75;;
40164;SDS011;25882;51.120;17.248;2022-08-01T10:09:48;3.85;;;2.20;;
40164;SDS011;25882;51.120;17.248;2022-08-01T10:12:51;3.97;;;2.67;;
40164;SDS011;25882;51.120;17.248;2022-08-01T10:15:18;2.92;;;2.40;;
40164;SDS011;25882;51.120;17.248;2022-08-01T10:17:50;4.38;;;2.70;;
40164;SDS011;25882;51.120;17.248;2022-08-01T10:20:20;4.32;;;2.30;;
40164;SDS011;25882;51.120;17.248;2022-08-01T10:25:48;2.80;;;2.10;;
40164;SDS011;25882;51.120;17.248;2022-08-01T10:28:17;3.78;;;2.35;;
40164;SDS011;25882;51.120;17.248;2022-08-01T10:30:44;5.10;;;2.58;;
40164;SDS011;25882;51.120;17.248;2022-08-01T10:33:12;8.32;;;3.47;;
40164;SDS011;25882;51.120;17.248;2022-08-01T10:35:41;3.75;;;2.40;;
40164;SDS011;25882;51.120;17.248;2022-08-01T10:41:21;3.78;;;3.10;;
40164;SDS011;25882;51.120;17.248;2022-08-01T10:43:48;3.88;;;3.33;;
40164;SDS011;25882;51.120;17.248;2022-08-01T10:46:18;3.45;;;2.80;;
40164;SDS011;25882;51.120;17.248;2022-08-01T10:49:01;5.75;;;3.13;;
40164;SDS011;25882;51.120;17.248;2022-08-01T10:51:36;3.25;;;2.80;;
40164;SDS011;25882;51.120;17.248;2022-08-01T10:54:18;5.95;;;3.55;;
40164;SDS011;25882;51.120;17.248;2022-08-01T10:57:10;7.65;;;2.88;;
40164;SDS011;25882;51.120;17.248;2022-08-01T10:59:48;4.53;;;2.80;;
40164;SDS011;25882;51.120;17.248;2022-08-01T11:02:28;4.70;;;2.95;;
40164;SDS011;25882;51.120;17.248;2022-08-01T11:05:04;3.88;;;3.03;;
40164;SDS011;25882;51.120;17.248;2022-08-01T11:07:43;5.10;;;3.00;;
40164;SDS011;25882;51.120;17.248;2022-08-01T11:10:35;5.03;;;2.95;;
40164;SDS011;25882;51.120;17.248;2022-08-01T11:20:32;4.30;;;2.80;;
40164;SDS011;25882;51.120;17.248;2022-08-01T11:39:10;3.00;;;2.67;;
40164;SDS011;25882;51.120;17.248;2022-08-01T11:41:50;3.05;;;2.40;;
40164;SDS011;25882;51.120;17.248;2022-08-01T11:44:28;3.38;;;3.08;;
40164;SDS011;25882;51.120;17.248;2022-08-01T11:47:02;5.22;;;2.65;;
40164;SDS011;25882;51.120;17.248;2022-08-01T11:49:42;3.70;;;3.05;;
40164;SDS011;25882;51.120;17.248;2022-08-01T11:52:16;2.95;;;2.60;;
40164;SDS011;25882;51.120;17.248;2022-08-01T11:54:47;5.35;;;2.60;;
40164;SDS011;25882;51.120;17.248;2022-08-01T11:57:19;4.28;;;3.13;;
40164;SDS011;25882;51.120;17.248;2022-08-01T11:59:48;3.70;;;2.90;;
40164;SDS011;25882;51.120;17.248;2022-08-01T12:02:20;4.75;;;3.10;;
40164;SDS011;25882;51.120;17.248;2022-08-01T12:04:49;3.30;;;3.00;;
40164;SDS011;25882;51.120;17.248;2022-08-01T12:07:19;3.85;;;3.53;;
40164;SDS011;25882;51.120;17.248;2022-08-01T12:09:47;5.68;;;3.58;;
40164;SDS011;25882;51.120;17.248;2022-08-01T12:12:15;4.10;;;3.10;;
40164;SDS011;25882;51.120;17.248;2022-08-01T12:14:52;6.10;;;3.22;;
40164;SDS011;25882;51.120;17.248;2022-08-01T12:17:29;4.10;;;3.05;;
40164;SDS011;25882;51.120;17.248;2022-08-01T12:19:57;5.65;;;3.97;;
40164;SDS011;25882;51.120;17.248;2022-08-01T12:22:43;5.30;;;2.85;;
40164;SDS011;25882;51.120;17.248;2022-08-01T12:25:10;5.20;;;2.80;;
40164;SDS011;25882;51.120;17.248;2022-08-01T12:27:41;3.35;;;3.05;;
40164;SDS011;25882;51.120;17.248;2022-08-01T12:30:09;3.22;;;2.58;;
40164;SDS011;25882;51.120;17.248;2022-08-01T12:32:38;3.10;;;2.80;;
40164;SDS011;25882;51.120;17.248;2022-08-01T12:35:06;3.92;;;3.00;;
40164;SDS011;25882;51.120;17.248;2022-08-01T12:37:34;3.38;;;2.72;;
40164;SDS011;25882;51.120;17.248;2022-08-01T12:40:17;3.08;;;2.78;;
40164;SDS011;25882;51.120;17.248;2022-08-01T12:42:56;5.78;;;2.53;;
40164;SDS011;25882;51.120;17.248;2022-08-01T12:45:27;3.33;;;2.63;;
40164;SDS011;25882;51.120;17.248;2022-08-01T12:47:54;4.93;;;2.75;;
40164;SDS011;25882;51.120;17.248;2022-08-01T12:50:23;2.63;;;2.42;;
40164;SDS011;25882;51.120;17.248;2022-08-01T12:52:51;5.97;;;2.75;;
40164;SDS011;25882;51.120;17.248;2022-08-01T12:55:19;5.57;;;2.30;;
40164;SDS011;25882;51.120;17.248;2022-08-01T12:57:47;3.55;;;2.70;;
40164;SDS011;25882;51.120;17.248;2022-08-01T13:00:18;3.22;;;2.30;;
40164;SDS011;25882;51.120;17.248;2022-08-01T13:02:46;4.05;;;2.95;;
40164;SDS011;25882;51.120;17.248;2022-08-01T13:05:13;4.32;;;3.15;;
40164;SDS011;25882;51.120;17.248;2022-08-01T13:07:47;4.38;;;2.75;;
40164;SDS011;25882;51.120;17.248;2022-08-01T13:10:15;4.82;;;2.47;;
40164;SDS011;25882;51.120;17.248;2022-08-01T13:12:53;2.75;;;2.50;;
40164;SDS011;25882;51.120;17.248;2022-08-01T13:15:21;3.45;;;2.53;;
40164;SDS011;25882;51.120;17.248;2022-08-01T13:17:49;2.72;;;2.50;;
40164;SDS011;25882;51.120;17.248;2022-08-01T13:20:27;3.40;;;2.20;;
40164;SDS011;25882;51.120;17.248;2022-08-01T13:22:54;4.20;;;2.90;;
40164;SDS011;25882;51.120;17.248;2022-08-01T13:25:21;4.22;;;2.67;;
40164;SDS011;25882;51.120;17.248;2022-08-01T13:27:49;3.97;;;2.58;;
40164;SDS011;25882;51.120;17.248;2022-08-01T13:30:15;3.30;;;2.50;;
40164;SDS011;25882;51.120;17.248;2022-08-01T13:32:43;3.33;;;2.53;;
40164;SDS011;25882;51.120;17.248;2022-08-01T13:35:10;3.55;;;2.80;;
40164;SDS011;25882;51.120;17.248;2022-08-01T13:37:38;4.45;;;2.67;;
40164;SDS011;25882;51.120;17.248;2022-08-01T13:40:06;4.20;;;3.08;;
40164;SDS011;25882;51.120;17.248;2022-08-01T13:42:33;3.47;;;3.10;;
40164;SDS011;25882;51.120;17.248;2022-08-01T13:45:01;3.20;;;2.78;;
40164;SDS011;25882;51.120;17.248;2022-08-01T13:47:44;4.18;;;2.75;;
40164;SDS011;25882;51.120;17.248;2022-08-01T13:50:16;3.45;;;3.05;;
40164;SDS011;25882;51.120;17.248;2022-08-01T13:52:43;5.07;;;3.05;;
40164;SDS011;25882;51.120;17.248;2022-08-01T13:55:15;4.18;;;3.13;;
40164;SDS011;25882;51.120;17.248;2022-08-01T13:57:47;5.00;;;3.17;;
40164;SDS011;25882;51.120;17.248;2022-08-01T14:00:16;4.07;;;3.08;;
40164;SDS011;25882;51.120;17.248;2022-08-01T14:02:48;5.82;;;3.35;;
40164;SDS011;25882;51.120;17.248;2022-08-01T14:05:27;3.13;;;2.83;;
40164;SDS011;25882;51.120;17.248;2022-08-01T14:07:57;4.07;;;3.67;;
40164;SDS011;25882;51.120;17.248;2022-08-01T14:10:23;4.53;;;3.30;;
40164;SDS011;25882;51.120;17.248;2022-08-01T14:13:02;4.05;;;3.13;;
40164;SDS011;25882;51.120;17.248;2022-08-01T14:19:04;6.45;;;3.40;;
40164;SDS011;25882;51.120;17.248;2022-08-01T14:21:44;3.40;;;3.10;;
40164;SDS011;25882;51.120;17.248;2022-08-01T14:24:27;4.95;;;3.70;;
40164;SDS011;25882;51.120;17.248;2022-08-01T14:27:15;7.40;;;3.42;;
40164;SDS011;25882;51.120;17.248;2022-08-01T14:35:36;3.50;;;3.05;;
40164;SDS011;25882;51.120;17.248;2022-08-01T14:38:03;3.88;;;3.45;;
40164;SDS011;25882;51.120;17.248;2022-08-01T14:40:29;2.72;;;2.53;;
40164;SDS011;25882;51.120;17.248;2022-08-01T14:42:55;2.72;;;2.40;;
40164;SDS011;25882;51.120;17.248;2022-08-01T14:45:25;3.45;;;2.60;;
40164;SDS011;25882;51.120;17.248;2022-08-01T14:47:52;4.55;;;1.90;;
40164;SDS011;25882;51.120;17.248;2022-08-01T14:50:19;3.10;;;2.15;;
40164;SDS011;25882;51.120;17.248;2022-08-01T14:52:54;5.32;;;1.55;;
40164;SDS011;25882;51.120;17.248;2022-08-01T14:55:20;2.83;;;2.00;;
40164;SDS011;25882;51.120;17.248;2022-08-01T14:58:09;3.10;;;1.92;;
40164;SDS011;25882;51.120;17.248;2022-08-01T15:00:39;3.03;;;2.33;;
40164;SDS011;25882;51.120;17.248;2022-08-01T15:09:46;3.97;;;2.67;;
40164;SDS011;25882;51.120;17.248;2022-08-01T15:12:13;2.50;;;2.28;;
40164;SDS011;25882;51.120;17.248;2022-08-01T15:14:42;2.83;;;2.50;;
40164;SDS011;25882;51.120;17.248;2022-08-01T15:17:27;3.33;;;2.33;;
40164;SDS011;25882;51.120;17.248;2022-08-01T15:20:06;3.65;;;2.20;;
40164;SDS011;25882;51.120;17.248;2022-08-01T15:22:36;2.83;;;2.53;;
40164;SDS011;25882;51.120;17.248;2022-08-01T15:25:04;3.00;;;2.22;;
40164;SDS011;25882;51.120;17.248;2022-08-01T15:27:40;2.28;;;2.00;;
40164;SDS011;25882;51.120;17.248;2022-08-01T15:30:13;2.85;;;2.08;;
40164;SDS011;25882;51.120;17.248;2022-08-01T15:33:17;4.07;;;2.00;;
40164;SDS011;25882;51.120;17.248;2022-08-01T15:35:46;3.05;;;1.80;;
40164;SDS011;25882;51.120;17.248;2022-08-01T15:38:14;2.88;;;2.20;;
40164;SDS011;25882;51.120;17.248;2022-08-01T15:41:07;4.47;;;2.33;;
40164;SDS011;25882;51.120;17.248;2022-08-01T15:43:33;4.78;;;3.05;;
40164;SDS011;25882;51.120;17.248;2022-08-01T15:46:03;5.65;;;2.95;;
40164;SDS011;25882;51.120;17.248;2022-08-01T15:48:32;5.95;;;3.28;;
40164;SDS011;25882;51.120;17.248;2022-08-01T15:50:59;5.47;;;3.38;;
40164;SDS011;25882;51.120;17.248;2022-08-01T15:53:40;4.35;;;2.53;;